createdAt,value
2019-04-23T00:04:45.579Z,99169.84
2019-04-23T00:10:26.271Z,99161.23
2019-04-23T00:15:55.302Z,99155.25
2019-04-23T00:21:15.533Z,99145.94
2019-04-23T00:26:51.583Z,99144.27
2019-04-23T00:32:15.094Z,99129.15
2019-04-23T00:42:51.222Z,99120.77
2019-04-23T00:48:09.299Z,99117.31
2019-04-23T00:53:36.962Z,99114.91
2019-04-23T00:58:54.968Z,99125.58
2019-04-23T01:03:58.115Z,99111.05
2019-04-23T01:09:30.908Z,99114.48
2019-04-23T01:15:06.912Z,99109.05
2019-04-23T01:20:36.819Z,99102.80
2019-04-23T01:25:51.696Z,99096.63
2019-04-23T01:31:14.721Z,99102.12
2019-04-23T01:36:36.045Z,99085.05
2019-04-23T01:47:38.380Z,99069.36
2019-04-23T01:53:14.335Z,99060.74
2019-04-23T02:04:09.662Z,99058.27
2019-04-23T02:09:42.292Z,99045.69
2019-04-23T02:15:03.631Z,99040.42
2019-04-23T02:20:23.652Z,99033.56
2019-04-23T02:25:54.071Z,99016.39
2019-04-23T02:37:40.887Z,99004.21
2019-04-23T02:43:01.708Z,98994.81
2019-04-23T03:22:58.998Z,98972.94
2019-04-23T03:39:40.296Z,98955.24
2019-04-23T03:45:16.625Z,98971.53
2019-04-23T04:02:04.377Z,98949.41
2019-04-23T04:23:49.309Z,98940.31
2019-04-23T04:50:55.532Z,98928.80
2019-04-23T05:02:43.570Z,98934.22
2019-04-23T05:07:47.425Z,98933.14
2019-04-23T05:12:45.222Z,98934.17
2019-04-23T05:18:17.407Z,98925.81
2019-04-23T05:28:28.447Z,98918.89
2019-04-23T05:33:22.423Z,98918.61
2019-04-23T05:38:43.786Z,98920.19
2019-04-23T05:43:38.444Z,98918.00
2019-04-23T05:48:33.366Z,98917.36
2019-04-23T05:53:42.454Z,98913.76
2019-04-23T05:58:48.950Z,98910.73
2019-04-23T06:03:56.973Z,98899.84
2019-04-23T06:08:53.568Z,98902.04
2019-04-23T06:24:16.346Z,98880.81
2019-04-23T06:39:23.391Z,98877.48
2019-04-23T06:44:32.377Z,98873.48
2019-04-23T06:54:49.347Z,98865.45
2019-04-23T06:59:51.604Z,98862.92
2019-04-23T07:04:57.162Z,98857.78
2019-04-23T07:09:56.219Z,98857.16
2019-04-23T07:15:14.610Z,98847.41
2019-04-23T07:20:02.709Z,98840.77
2019-04-23T07:25:14.918Z,98844.95
2019-04-23T07:35:15.941Z,98834.37
2019-04-23T07:40:31.301Z,98828.73
2019-04-23T07:45:54.745Z,98821.84
2019-04-23T07:50:55.078Z,98816.51
2019-04-23T07:56:02.114Z,98803.30
2019-04-23T08:01:06.915Z,98804.02
2019-04-23T08:16:27.776Z,98791.02
2019-04-23T08:21:25.824Z,98787.83
2019-04-23T08:32:02.507Z,98784.00
2019-04-23T08:37:04.624Z,98783.59
2019-04-23T08:42:28.808Z,98777.30
2019-04-23T08:47:17.149Z,98783.95
2019-04-23T08:52:18.262Z,98773.53
2019-04-23T08:57:22.711Z,98770.89
2019-04-23T09:02:31.240Z,98769.39
2019-04-23T09:12:35.092Z,98769.73
2019-04-23T09:17:44.393Z,98756.93
2019-04-23T09:22:38.830Z,98750.52
2019-04-23T09:27:45.465Z,98745.13
2019-04-23T09:33:00.843Z,98743.98
2019-04-23T09:38:31.548Z,98744.18
2019-04-23T09:44:27.591Z,98735.08
2019-04-23T09:49:14.985Z,98733.42
2019-04-23T09:54:21.897Z,98727.92
2019-04-23T09:59:25.607Z,98725.77
2019-04-23T10:04:18.614Z,98721.94
2019-04-23T10:09:10.573Z,98730.53
2019-04-23T10:14:14.475Z,98730.16
2019-04-23T10:19:19.011Z,98727.80
2019-04-23T10:24:23.191Z,98725.12
2019-04-23T10:29:31.988Z,98713.34
2019-04-23T10:34:46.094Z,98702.02
2019-04-23T10:39:42.695Z,98697.97
2019-04-23T10:44:52.154Z,98687.50
2019-04-23T10:50:49.578Z,98687.96
2019-04-23T11:01:07.922Z,98687.48
2019-04-23T11:06:06.763Z,98689.20
2019-04-23T11:11:07.851Z,98679.92
2019-04-23T11:21:23.604Z,98672.11
2019-04-23T11:26:22.949Z,98684.36
2019-04-23T11:31:31.029Z,98676.69
2019-04-23T11:36:47.909Z,98675.92
2019-04-23T11:46:57.230Z,98667.09
2019-04-23T11:51:54.730Z,98678.13
2019-04-23T11:57:27.150Z,98674.34
2019-04-23T12:02:05.312Z,98665.06
2019-04-23T12:07:22.680Z,98668.14
2019-04-23T12:12:31.171Z,98670.59
2019-04-23T12:17:47.085Z,98661.08
2019-04-23T12:22:45.617Z,98658.32
2019-04-23T12:27:33.407Z,98656.16
2019-04-23T12:38:00.986Z,98662.44
2019-04-23T12:43:25.742Z,98655.63
2019-04-23T12:53:25.848Z,98648.55
2019-04-23T13:13:44.396Z,98638.67
2019-04-23T13:18:41.554Z,98643.13
2019-04-23T13:23:49.445Z,98623.16
2019-04-23T13:28:50.960Z,98633.64
2019-04-23T13:34:19.542Z,98631.88
2019-04-23T13:38:54.762Z,98615.67
2019-04-23T13:44:00.251Z,98614.82
2019-04-23T13:49:07.411Z,98612.70
2019-04-23T13:54:17.257Z,98607.13
2019-04-23T13:59:31.448Z,98598.55
2019-04-23T14:04:48.401Z,98598.97
2019-04-23T14:20:04.526Z,98588.30
2019-04-23T14:31:01.147Z,98581.84
2019-04-23T14:36:00.520Z,98580.44
2019-04-23T14:41:12.890Z,98576.98
2019-04-23T14:51:39.618Z,98563.78
2019-04-23T14:56:22.258Z,98558.67
2019-04-23T15:01:47.560Z,98569.36
2019-04-23T15:11:52.730Z,98549.78
2019-04-23T15:16:46.634Z,98546.09
2019-04-23T15:22:05.163Z,98572.78
2019-04-23T15:32:00.770Z,98570.59
2019-04-23T15:37:19.216Z,98570.17
2019-04-23T15:42:14.463Z,98568.87
2019-04-23T15:52:40.138Z,98568.25
2019-04-23T15:57:18.123Z,98567.00
2019-04-23T16:01:55.373Z,98561.78
2019-04-23T16:06:59.434Z,98560.63
2019-04-23T16:12:25.343Z,98565.02
2019-04-23T16:17:37.121Z,98568.20
2019-04-23T16:22:36.739Z,98559.49
2019-04-23T16:27:45.187Z,98559.36
2019-04-23T16:38:23.254Z,98567.42
2019-04-23T16:58:36.557Z,98560.72
2019-04-23T17:03:31.865Z,98567.36
2019-04-23T17:13:44.697Z,98563.93
2019-04-23T17:18:48.703Z,98565.95
2019-04-23T17:29:02.942Z,98563.52
2019-04-23T17:34:12.141Z,98567.47
2019-04-23T17:39:11.969Z,98569.77
2019-04-23T17:44:23.516Z,98574.45
2019-04-23T17:49:26.410Z,98572.16
2019-04-23T18:00:05.452Z,98569.34
2019-04-23T18:10:13.296Z,98581.28
2019-04-23T18:15:00.403Z,98584.66
2019-04-23T18:50:32.795Z,98532.34
2019-04-23T18:56:03.896Z,98610.52
2019-04-23T19:01:19.841Z,98614.37
2019-04-23T19:06:45.679Z,98625.80
2019-04-23T19:13:24.950Z,98623.34
2019-04-23T19:19:40.616Z,98634.31
2019-04-23T19:24:38.522Z,98639.25
2019-04-23T19:29:46.235Z,98634.40
2019-04-23T19:34:42.661Z,98639.41
2019-04-23T19:40:03.952Z,98644.34
2019-04-23T19:56:36.544Z,98663.80
2019-04-23T20:02:00.235Z,98661.14
2019-04-23T20:12:26.895Z,98670.92
2019-04-23T20:23:52.579Z,98668.19
